createdAt,value
2019-03-18T00:00:08.174Z,99310.39
2019-03-18T00:00:39.373Z,99313.23
2019-03-18T00:01:10.588Z,99309.73
2019-03-18T00:01:41.807Z,99307.13
2019-03-18T00:02:13.023Z,99309.83
2019-03-18T00:02:44.282Z,99308.71
2019-03-18T00:03:15.499Z,99308.86
2019-03-18T00:03:46.712Z,99310.45
2019-03-18T00:04:17.935Z,99306.53
2019-03-18T00:04:49.133Z,99300.05
2019-03-18T00:05:20.339Z,99309.61
2019-03-18T00:05:51.548Z,99309.47
2019-03-18T00:06:22.780Z,99312.73
2019-03-18T00:06:53.987Z,99308.30
2019-03-18T00:07:25.241Z,99314.51
2019-03-18T00:07:56.433Z,99304.59
2019-03-18T00:08:27.640Z,99306.31
2019-03-18T00:08:58.875Z,99305.80
2019-03-18T00:09:30.063Z,99306.59
2019-03-18T00:10:01.324Z,99304.33
2019-03-18T00:10:32.526Z,99303.02
2019-03-18T00:11:03.738Z,99300.16
2019-03-18T00:11:34.933Z,99305.22
2019-03-18T00:12:06.145Z,99302.86
2019-03-18T00:12:37.371Z,99306.91
2019-03-18T00:13:08.575Z,99308.37
2019-03-18T00:13:39.813Z,99311.97
2019-03-18T00:14:10.998Z,99307.25
2019-03-18T00:14:42.196Z,99306.84
2019-03-18T00:15:13.454Z,99308.37
2019-03-18T00:15:44.710Z,99308.87
2019-03-18T00:16:15.900Z,99300.42
2019-03-18T00:16:47.116Z,99309.08
2019-03-18T00:17:18.349Z,99303.69
2019-03-18T00:17:49.555Z,99306.27
2019-03-18T00:18:20.752Z,99305.01
2019-03-18T00:18:52.019Z,99308.31
2019-03-18T00:19:23.200Z,99303.70
2019-03-18T00:19:54.416Z,99307.35
2019-03-18T00:20:25.625Z,99307.90
2019-03-18T00:20:56.834Z,99303.97
2019-03-18T00:21:28.033Z,99308.55
2019-03-18T00:21:59.234Z,99306.84
2019-03-18T00:22:30.452Z,99312.00
2019-03-18T00:23:01.672Z,99304.22
2019-03-18T00:23:32.859Z,99311.36
2019-03-18T00:24:04.062Z,99304.48
2019-03-18T00:24:35.251Z,99307.83
2019-03-18T00:25:06.492Z,99302.39
2019-03-18T00:25:37.741Z,99304.29
2019-03-18T00:26:08.940Z,99302.38
2019-03-18T00:26:40.138Z,99299.36
2019-03-18T00:27:11.390Z,99296.70
2019-03-18T00:27:42.585Z,99299.44
2019-03-18T00:28:13.814Z,99301.30
2019-03-18T00:28:45.000Z,99302.39
2019-03-18T00:29:16.213Z,99307.12
2019-03-18T00:29:47.407Z,99299.70
2019-03-18T00:30:18.621Z,99301.88
2019-03-18T00:30:49.834Z,99297.55
2019-03-18T00:31:21.025Z,99300.61
2019-03-18T00:31:53.150Z,99298.71
2019-03-18T00:32:24.355Z,99296.89
2019-03-18T00:32:55.608Z,99301.30
2019-03-18T00:33:26.814Z,99305.22
2019-03-18T00:33:58.015Z,99302.91
2019-03-18T00:34:29.229Z,99302.25
2019-03-18T00:35:00.432Z,99303.90
2019-03-18T00:35:31.669Z,99301.94
2019-03-18T00:36:02.869Z,99301.69
2019-03-18T00:36:34.096Z,99297.55
2019-03-18T00:37:05.307Z,99297.73
2019-03-18T00:37:36.506Z,99296.17
2019-03-18T00:38:07.708Z,99297.66
2019-03-18T00:38:38.905Z,99298.20
2019-03-18T00:39:10.096Z,99301.84
2019-03-18T00:39:41.343Z,99297.66
2019-03-18T00:40:12.612Z,99298.70
2019-03-18T00:40:43.845Z,99304.45
2019-03-18T00:41:15.039Z,99301.10
2019-03-18T00:41:46.247Z,99299.36
2019-03-18T00:42:17.451Z,99298.99
2019-03-18T00:42:48.655Z,99299.36
2019-03-18T00:43:19.859Z,99294.64
2019-03-18T00:43:51.057Z,99295.70
2019-03-18T00:44:22.308Z,99297.66
2019-03-18T00:44:53.510Z,99292.75
2019-03-18T00:45:24.708Z,99290.61
2019-03-18T00:45:55.913Z,99291.66
2019-03-18T00:46:27.145Z,99291.70
2019-03-18T00:46:58.324Z,99298.31
2019-03-18T00:47:29.525Z,99297.55
2019-03-18T00:48:00.775Z,99295.84
2019-03-18T00:48:31.975Z,99288.38
2019-03-18T00:49:03.169Z,99285.77
2019-03-18T00:49:34.392Z,99287.08
2019-03-18T00:50:05.591Z,99289.22
2019-03-18T00:50:36.851Z,99287.59
2019-03-18T00:51:08.058Z,99287.59
2019-03-18T00:51:39.265Z,99287.66
2019-03-18T00:52:10.480Z,99284.75
2019-03-18T00:52:41.830Z,99287.44
2019-03-18T00:53:13.941Z,99287.59
2019-03-18T00:53:45.141Z,99285.11
2019-03-18T00:54:16.381Z,99288.81
2019-03-18T00:54:47.564Z,99288.55
2019-03-18T00:55:18.780Z,99286.52
2019-03-18T00:55:51.758Z,99290.11
2019-03-18T00:56:22.990Z,99291.55
2019-03-18T00:56:54.202Z,99290.86
2019-03-18T00:57:25.418Z,99284.97
2019-03-18T00:57:56.633Z,99288.12
2019-03-18T00:58:27.834Z,99291.71
2019-03-18T00:58:59.059Z,99285.27
2019-03-18T00:59:30.271Z,99287.45
2019-03-18T01:00:01.506Z,99286.18
2019-03-18T01:00:32.709Z,99287.13
2019-03-18T01:01:03.989Z,99284.20
2019-03-18T01:01:35.191Z,99286.05
2019-03-18T01:02:06.461Z,99284.92
2019-03-18T01:02:37.741Z,99285.48
2019-03-18T01:03:08.914Z,99286.46
2019-03-18T01:03:40.120Z,99288.41
2019-03-18T01:04:11.409Z,99289.41
2019-03-18T01:04:42.575Z,99284.42
2019-03-18T01:05:13.774Z,99288.60
2019-03-18T01:05:45.011Z,99289.67
2019-03-18T01:06:16.251Z,99287.28
2019-03-18T01:06:47.520Z,99286.95
2019-03-18T01:07:18.723Z,99283.66
2019-03-18T01:07:49.928Z,99288.88
2019-03-18T01:08:21.122Z,99282.02
2019-03-18T01:08:52.334Z,99284.29
2019-03-18T01:09:23.544Z,99280.37
2019-03-18T01:09:54.736Z,99278.66
2019-03-18T01:10:25.980Z,99281.27
2019-03-18T01:10:57.183Z,99284.72
2019-03-18T01:11:28.386Z,99284.72
2019-03-18T01:11:59.634Z,99279.97
2019-03-18T01:12:30.844Z,99280.47
2019-03-18T01:13:02.060Z,99283.02
2019-03-18T01:13:33.268Z,99280.03
2019-03-18T01:14:04.471Z,99278.26
2019-03-18T01:14:35.692Z,99273.03
2019-03-18T01:15:06.899Z,99280.77
2019-03-18T01:15:38.143Z,99281.67
2019-03-18T01:16:09.348Z,99277.35
2019-03-18T01:16:40.625Z,99279.56
2019-03-18T01:17:11.839Z,99277.79
2019-03-18T01:17:43.062Z,99281.34
2019-03-18T01:18:15.369Z,99276.11
2019-03-18T01:18:46.567Z,99279.97
2019-03-18T01:19:17.775Z,99279.06
2019-03-18T01:19:49.029Z,99280.41
2019-03-18T01:20:20.245Z,99276.05
2019-03-18T01:20:51.446Z,99282.23
2019-03-18T01:21:22.653Z,99282.30
2019-03-18T01:21:53.856Z,99277.58
2019-03-18T01:22:25.056Z,99277.23
2019-03-18T01:22:56.271Z,99277.46
2019-03-18T01:23:27.547Z,99279.80
2019-03-18T01:23:58.762Z,99276.94
2019-03-18T01:24:30.004Z,99275.45
2019-03-18T01:25:01.241Z,99275.64
2019-03-18T01:25:32.449Z,99277.63
2019-03-18T01:26:03.644Z,99281.35
2019-03-18T01:26:34.844Z,99287.47
2019-03-18T01:27:06.069Z,99285.88
2019-03-18T01:27:37.294Z,99283.34
2019-03-18T01:28:08.497Z,99279.98
2019-03-18T01:28:39.705Z,99276.06
2019-03-18T01:29:10.922Z,99281.28
2019-03-18T01:29:42.182Z,99277.80
2019-03-18T01:30:13.387Z,99278.33
2019-03-18T01:30:44.597Z,99279.23
2019-03-18T01:31:15.805Z,99278.41
2019-03-18T01:31:47.024Z,99279.34
2019-03-18T01:32:18.250Z,99277.58
2019-03-18T01:32:49.454Z,99275.12
2019-03-18T01:33:20.660Z,99277.78
2019-03-18T01:33:51.863Z,99284.92
2019-03-18T01:34:23.122Z,99286.38
2019-03-18T01:34:54.322Z,99284.78
2019-03-18T01:35:25.523Z,99288.03
2019-03-18T01:35:56.723Z,99286.44
2019-03-18T01:36:27.922Z,99292.31
2019-03-18T01:36:59.141Z,99287.03
2019-03-18T01:37:30.346Z,99291.14
2019-03-18T01:38:01.616Z,99285.58
2019-03-18T01:38:32.810Z,99290.38
2019-03-18T01:39:04.014Z,99288.24
2019-03-18T01:39:35.262Z,99288.24
2019-03-18T01:40:06.471Z,99285.28
2019-03-18T01:40:37.679Z,99285.34
2019-03-18T01:41:08.878Z,99288.90
2019-03-18T01:41:40.085Z,99287.63
2019-03-18T01:42:11.291Z,99289.88
2019-03-18T01:42:42.537Z,99286.48
2019-03-18T01:43:13.732Z,99284.42
2019-03-18T01:43:44.946Z,99286.73
2019-03-18T01:44:16.159Z,99286.33
2019-03-18T01:44:47.407Z,99289.88
2019-03-18T01:45:18.622Z,99289.36
2019-03-18T01:45:49.840Z,99289.33
2019-03-18T01:46:21.046Z,99290.45
2019-03-18T01:46:52.246Z,99294.64
2019-03-18T01:47:23.458Z,99295.40
2019-03-18T01:47:54.723Z,99294.75
2019-03-18T01:48:25.983Z,99299.76
2019-03-18T01:48:57.182Z,99299.00
2019-03-18T01:49:28.439Z,99299.33
2019-03-18T01:49:59.735Z,99300.33
2019-03-18T01:50:30.931Z,99300.50
2019-03-18T01:51:02.245Z,99303.20
2019-03-18T01:51:33.456Z,99301.59
2019-03-18T01:52:04.667Z,99295.24
2019-03-18T01:52:35.877Z,99300.09
2019-03-18T01:53:07.074Z,99293.28
2019-03-18T01:53:38.294Z,99293.80
2019-03-18T01:54:09.526Z,99289.22
2019-03-18T01:54:40.721Z,99296.25
2019-03-18T01:55:11.937Z,99290.74
2019-03-18T01:55:43.180Z,99301.67
2019-03-18T01:56:14.374Z,99293.59
2019-03-18T01:56:45.584Z,99293.66
2019-03-18T01:57:16.793Z,99294.16
2019-03-18T01:57:47.991Z,99293.80
2019-03-18T01:58:19.191Z,99295.11
2019-03-18T01:58:50.422Z,99301.86
2019-03-18T01:59:21.623Z,99301.71
2019-03-18T01:59:52.854Z,99296.04
2019-03-18T02:00:24.050Z,99300.73
2019-03-18T02:00:55.284Z,99299.43
2019-03-18T02:01:26.477Z,99308.22
2019-03-18T02:01:57.685Z,99301.76
2019-03-18T02:02:28.889Z,99298.38
2019-03-18T02:03:00.112Z,99306.27
2019-03-18T02:03:31.304Z,99303.73
2019-03-18T02:04:02.528Z,99308.61
2019-03-18T02:04:33.729Z,99312.09
2019-03-18T02:05:04.927Z,99303.47
2019-03-18T02:05:36.176Z,99310.48
2019-03-18T02:06:07.376Z,99307.52
2019-03-18T02:06:38.574Z,99308.08
2019-03-18T02:07:09.784Z,99305.63
2019-03-18T02:07:40.998Z,99304.42
2019-03-18T02:08:12.247Z,99301.88
2019-03-18T02:08:43.474Z,99303.67
2019-03-18T02:09:14.698Z,99306.78
2019-03-18T02:09:45.902Z,99308.60
2019-03-18T02:10:17.111Z,99308.27
2019-03-18T02:10:48.351Z,99307.02
2019-03-18T02:11:19.585Z,99308.00
2019-03-18T02:11:50.801Z,99312.09
2019-03-18T02:12:22.006Z,99308.64
2019-03-18T02:12:53.213Z,99313.84
2019-03-18T02:13:24.411Z,99304.80
2019-03-18T02:13:55.637Z,99306.09
2019-03-18T02:14:26.838Z,99306.09
2019-03-18T02:14:58.050Z,99300.67
2019-03-18T02:15:29.298Z,99300.30
2019-03-18T02:16:00.511Z,99298.72
2019-03-18T02:16:31.729Z,99299.22
2019-03-18T02:17:02.924Z,99299.69
2019-03-18T02:17:34.124Z,99296.39
2019-03-18T02:18:05.420Z,99295.08
2019-03-18T02:18:36.643Z,99294.36
2019-03-18T02:19:07.877Z,99292.41
2019-03-18T02:19:39.073Z,99291.81
2019-03-18T02:20:10.286Z,99291.34
2019-03-18T02:20:41.501Z,99294.31
2019-03-18T02:21:12.727Z,99296.58
2019-03-18T02:21:43.921Z,99297.47
2019-03-18T02:22:15.129Z,99298.34
2019-03-18T02:22:46.327Z,99299.65
2019-03-18T02:23:17.556Z,99298.34
2019-03-18T02:23:48.763Z,99296.62
2019-03-18T02:24:19.967Z,99300.95
2019-03-18T02:24:51.165Z,99295.75
2019-03-18T02:25:22.439Z,99302.66
2019-03-18T02:25:53.643Z,99309.16
2019-03-18T02:26:24.838Z,99308.27
2019-03-18T02:26:56.029Z,99303.50
2019-03-18T02:27:27.232Z,99309.57
2019-03-18T02:27:58.430Z,99311.30
2019-03-18T02:28:29.648Z,99309.57
2019-03-18T02:29:00.851Z,99306.09
2019-03-18T02:29:32.046Z,99315.55
2019-03-18T02:30:03.242Z,99305.16
2019-03-18T02:30:34.494Z,99312.54
2019-03-18T02:31:05.692Z,99306.05
2019-03-18T02:31:36.941Z,99309.07
2019-03-18T02:32:08.114Z,99310.37
2019-03-18T02:32:39.320Z,99312.59
2019-03-18T02:33:10.564Z,99309.98
2019-03-18T02:33:41.764Z,99315.61
2019-03-18T02:34:12.959Z,99318.16
2019-03-18T02:34:44.162Z,99319.88
2019-03-18T02:35:15.346Z,99325.48
2019-03-18T02:35:46.567Z,99324.19
2019-03-18T02:36:17.763Z,99327.25
2019-03-18T02:36:49.038Z,99322.00
2019-03-18T02:37:20.234Z,99324.60
2019-03-18T02:37:51.433Z,99321.54
2019-03-18T02:38:22.636Z,99320.23
2019-03-18T02:38:53.843Z,99321.08
2019-03-18T02:39:25.104Z,99322.34
2019-03-18T02:39:56.348Z,99324.88
2019-03-18T02:40:27.554Z,99322.70
2019-03-18T02:40:58.748Z,99324.38
2019-03-18T02:41:29.985Z,99326.52
2019-03-18T02:42:01.213Z,99318.26
2019-03-18T02:42:32.440Z,99321.27
2019-03-18T02:43:03.637Z,99320.86
2019-03-18T02:43:34.844Z,99321.36
2019-03-18T02:44:06.092Z,99321.83
2019-03-18T02:44:37.296Z,99323.17
2019-03-18T02:45:08.500Z,99324.88
2019-03-18T02:45:39.708Z,99319.27
2019-03-18T02:46:11.200Z,99320.57
2019-03-18T02:46:42.615Z,99323.58
2019-03-18T02:47:13.826Z,99322.70
2019-03-18T02:47:45.038Z,99313.61
2019-03-18T02:48:16.287Z,99322.20
2019-03-18T02:48:47.485Z,99318.72
2019-03-18T02:49:18.710Z,99323.08
2019-03-18T02:49:49.924Z,99324.38
2019-03-18T02:50:21.212Z,99323.08
2019-03-18T02:50:52.407Z,99316.20
2019-03-18T02:51:23.617Z,99322.24
2019-03-18T02:51:54.826Z,99323.08
2019-03-18T02:52:26.038Z,99318.80
2019-03-18T02:52:57.244Z,99322.70
2019-03-18T02:53:28.506Z,99322.24
2019-03-18T02:53:59.707Z,99319.64
2019-03-18T02:54:30.932Z,99319.59
2019-03-18T02:55:02.173Z,99318.72
2019-03-18T02:55:33.432Z,99323.45
2019-03-18T02:56:04.630Z,99322.15
2019-03-18T02:56:35.836Z,99319.55
2019-03-18T02:57:07.044Z,99319.96
2019-03-18T02:57:38.287Z,99320.77
2019-03-18T02:58:09.485Z,99324.24
2019-03-18T02:58:40.685Z,99325.08
2019-03-18T02:59:11.895Z,99322.44
2019-03-18T02:59:43.103Z,99328.13
2019-03-18T03:00:14.309Z,99320.30
2019-03-18T03:00:45.551Z,99320.30
2019-03-18T03:01:16.749Z,99326.28
2019-03-18T03:01:48.005Z,99322.80
2019-03-18T03:02:19.180Z,99325.81
2019-03-18T03:02:50.447Z,99326.19
2019-03-18T03:03:21.669Z,99322.25
2019-03-18T03:03:52.872Z,99326.13
2019-03-18T03:04:24.125Z,99323.45
2019-03-18T03:04:55.320Z,99323.39
2019-03-18T03:05:26.544Z,99321.63
2019-03-18T03:05:57.735Z,99327.25
2019-03-18T03:06:28.935Z,99322.47
2019-03-18T03:07:00.145Z,99324.60
2019-03-18T03:07:31.412Z,99321.95
2019-03-18T03:08:02.632Z,99323.26
2019-03-18T03:08:33.841Z,99320.65
2019-03-18T03:09:05.028Z,99319.34
2019-03-18T03:09:36.344Z,99327.52
2019-03-18T03:10:07.505Z,99328.40
2019-03-18T03:10:38.719Z,99326.22
2019-03-18T03:11:09.921Z,99328.81
2019-03-18T03:11:41.140Z,99321.48
2019-03-18T03:12:12.346Z,99319.34
2019-03-18T03:12:43.604Z,99324.56
2019-03-18T03:13:14.802Z,99320.70
2019-03-18T03:13:46.007Z,99322.52
2019-03-18T03:14:17.205Z,99323.02
2019-03-18T03:14:48.433Z,99323.02
2019-03-18T03:15:19.611Z,99321.73
2019-03-18T03:15:50.824Z,99324.10
2019-03-18T03:16:27.116Z,99325.17
2019-03-18T03:16:55.082Z,99332.73
2019-03-18T03:17:26.279Z,99331.55
2019-03-18T03:17:57.495Z,99327.25
2019-03-18T03:18:28.699Z,99338.61
2019-03-18T03:18:59.897Z,99335.67
2019-03-18T03:19:31.139Z,99335.27
2019-03-18T03:20:02.341Z,99336.97
2019-03-18T03:20:33.525Z,99339.57
2019-03-18T03:21:04.732Z,99340.00
2019-03-18T03:21:35.944Z,99343.05
2019-03-18T03:22:07.136Z,99343.52
2019-03-18T03:22:38.334Z,99341.80
2019-03-18T03:23:09.554Z,99338.32
2019-03-18T03:23:40.782Z,99342.67
2019-03-18T03:24:12.159Z,99338.37
2019-03-18T03:24:43.397Z,99339.72
2019-03-18T03:25:14.598Z,99342.77
2019-03-18T03:25:45.811Z,99339.80
2019-03-18T03:26:17.019Z,99337.63
2019-03-18T03:26:48.225Z,99335.07
2019-03-18T03:27:19.440Z,99333.48
2019-03-18T03:27:50.649Z,99336.91
2019-03-18T03:28:21.848Z,99340.39
2019-03-18T03:28:53.046Z,99337.00
2019-03-18T03:29:24.309Z,99337.45
2019-03-18T03:29:55.602Z,99336.58
2019-03-18T03:30:26.787Z,99336.13
2019-03-18T03:30:57.987Z,99334.40
2019-03-18T03:31:29.296Z,99346.00
2019-03-18T03:32:00.597Z,99343.70
2019-03-18T03:32:31.801Z,99341.84
2019-03-18T03:33:03.007Z,99343.98
2019-03-18T03:33:34.213Z,99342.27
2019-03-18T03:34:05.409Z,99342.69
2019-03-18T03:34:36.623Z,99350.47
2019-03-18T03:35:07.837Z,99343.98
2019-03-18T03:35:39.065Z,99341.84
2019-03-18T03:36:10.254Z,99344.48
2019-03-18T03:36:41.458Z,99342.31
2019-03-18T03:37:12.653Z,99348.42
2019-03-18T03:37:43.863Z,99347.13
2019-03-18T03:38:15.103Z,99351.90
2019-03-18T03:38:46.327Z,99350.60
2019-03-18T03:39:17.526Z,99354.04
2019-03-18T03:39:48.724Z,99353.20
2019-03-18T03:40:19.979Z,99354.92
2019-03-18T03:40:51.189Z,99350.65
2019-03-18T03:41:22.388Z,99356.67
2019-03-18T03:41:53.600Z,99357.94
2019-03-18T03:42:24.812Z,99358.39
2019-03-18T03:42:56.060Z,99357.52
2019-03-18T03:43:27.267Z,99351.90
2019-03-18T03:43:58.471Z,99353.12
2019-03-18T03:44:29.729Z,99355.30
2019-03-18T03:45:00.918Z,99354.04
2019-03-18T03:45:32.125Z,99364.01
2019-03-18T03:46:03.342Z,99360.57
2019-03-18T03:46:43.220Z,99357.14
2019-03-18T03:47:07.482Z,99362.33
2019-03-18T03:47:38.704Z,99370.24
2019-03-18T03:48:09.958Z,99368.95
2019-03-18T03:48:41.186Z,99372.00
2019-03-18T03:49:12.436Z,99369.86
2019-03-18T03:49:43.674Z,99372.88
2019-03-18T03:50:14.861Z,99374.22
2019-03-18T03:50:46.074Z,99372.16
2019-03-18T03:51:17.268Z,99376.11
2019-03-18T03:51:48.486Z,99379.62
2019-03-18T03:52:19.766Z,99378.39
2019-03-18T03:52:50.948Z,99382.30
2019-03-18T03:53:22.158Z,99380.66
2019-03-18T03:53:53.377Z,99381.19
2019-03-18T03:54:24.636Z,99381.22
2019-03-18T03:54:55.876Z,99385.16
2019-03-18T03:55:27.087Z,99384.36
2019-03-18T03:55:58.307Z,99382.68
2019-03-18T03:56:29.536Z,99384.89
2019-03-18T03:57:00.728Z,99384.44
2019-03-18T03:57:31.927Z,99383.09
2019-03-18T03:58:03.152Z,99385.66
2019-03-18T03:58:34.340Z,99386.49
2019-03-18T03:59:05.536Z,99385.61
2019-03-18T03:59:36.751Z,99387.34
2019-03-18T04:00:08.008Z,99382.60
2019-03-18T04:00:39.216Z,99381.30
2019-03-18T04:01:10.420Z,99382.60
2019-03-18T04:01:41.620Z,99383.02
2019-03-18T04:02:12.815Z,99381.72
2019-03-18T04:02:44.020Z,99378.70
2019-03-18T04:03:15.255Z,99380.05
2019-03-18T04:03:46.505Z,99377.95
2019-03-18T04:04:17.709Z,99378.83
2019-03-18T04:04:48.957Z,99384.89
2019-03-18T04:05:20.140Z,99383.59
2019-03-18T04:05:52.398Z,99375.00
2019-03-18T04:06:23.605Z,99379.39
2019-03-18T04:06:54.819Z,99380.27
2019-03-18T04:07:26.026Z,99381.98
2019-03-18T04:07:57.267Z,99382.45
2019-03-18T04:08:28.474Z,99378.17
2019-03-18T04:08:59.709Z,99379.05
2019-03-18T04:09:30.921Z,99380.80
2019-03-18T04:10:02.217Z,99379.08
2019-03-18T04:10:33.414Z,99377.90
2019-03-18T04:11:08.164Z,99377.55
2019-03-18T04:11:38.226Z,99374.95
2019-03-18T04:12:09.453Z,99374.61
2019-03-18T04:12:40.630Z,99375.48
2019-03-18T04:13:11.843Z,99369.45
2019-03-18T04:13:43.043Z,99373.38
2019-03-18T04:14:14.264Z,99373.91
2019-03-18T04:14:45.484Z,99370.47
2019-03-18T04:15:16.723Z,99374.86
2019-03-18T04:15:47.927Z,99378.84
2019-03-18T04:16:19.121Z,99374.15
2019-03-18T04:17:01.679Z,99375.94
2019-03-18T04:17:23.250Z,99368.61
2019-03-18T04:17:54.457Z,99370.81
2019-03-18T04:18:25.663Z,99365.67
2019-03-18T04:18:56.974Z,99367.80
2019-03-18T04:19:28.304Z,99367.77
2019-03-18T04:19:59.515Z,99373.02
2019-03-18T04:20:30.742Z,99369.10
2019-03-18T04:21:01.981Z,99369.55
2019-03-18T04:21:33.190Z,99366.96
2019-03-18T04:22:04.395Z,99370.91
2019-03-18T04:22:35.597Z,99372.17
2019-03-18T04:23:06.805Z,99369.13
2019-03-18T04:23:38.093Z,99368.68
2019-03-18T04:24:09.297Z,99367.80
2019-03-18T04:24:40.524Z,99370.81
2019-03-18T04:25:11.739Z,99373.41
2019-03-18T04:25:42.936Z,99374.28
2019-03-18T04:26:14.150Z,99373.44
2019-03-18T04:26:45.375Z,99376.48
2019-03-18T04:27:16.621Z,99378.20
2019-03-18T04:27:47.891Z,99379.11
2019-03-18T04:28:19.068Z,99375.23
2019-03-18T04:28:50.297Z,99379.14
2019-03-18T04:29:21.521Z,99380.02
2019-03-18T04:29:52.722Z,99376.63
2019-03-18T04:30:23.929Z,99375.39
2019-03-18T04:30:55.153Z,99379.73
2019-03-18T04:31:26.345Z,99381.45
2019-03-18T04:31:57.600Z,99374.58
2019-03-18T04:32:28.805Z,99375.91
2019-03-18T04:33:00.064Z,99372.89
2019-03-18T04:33:31.275Z,99375.03
2019-03-18T04:34:02.543Z,99380.22
2019-03-18T04:34:33.763Z,99378.02
2019-03-18T04:35:04.962Z,99375.42
2019-03-18T04:35:36.201Z,99375.42
2019-03-18T04:36:07.450Z,99375.45
2019-03-18T04:36:38.645Z,99380.67
2019-03-18T04:37:09.863Z,99378.95
2019-03-18T04:37:41.055Z,99381.57
2019-03-18T04:38:12.252Z,99379.82
2019-03-18T04:38:43.490Z,99384.13
2019-03-18T04:39:14.694Z,99387.11
2019-03-18T04:39:45.914Z,99387.50
2019-03-18T04:40:17.115Z,99386.11
2019-03-18T04:40:48.328Z,99381.31
2019-03-18T04:41:19.544Z,99385.14
2019-03-18T04:41:50.749Z,99384.20
2019-03-18T04:42:21.964Z,99390.55
2019-03-18T04:42:53.163Z,99388.66
2019-03-18T04:43:24.431Z,99388.17
2019-03-18T04:43:55.645Z,99393.67
2019-03-18T04:44:26.854Z,99393.95
2019-03-18T04:44:58.099Z,99395.91
2019-03-18T04:45:29.291Z,99394.92
2019-03-18T04:46:00.497Z,99394.39
2019-03-18T04:46:31.717Z,99393.82
2019-03-18T04:47:13.741Z,99398.44
2019-03-18T04:47:35.866Z,99394.39
2019-03-18T04:48:07.074Z,99395.99
2019-03-18T04:48:38.315Z,99396.63
2019-03-18T04:49:09.527Z,99401.20
2019-03-18T04:49:40.725Z,99402.32
2019-03-18T04:50:11.983Z,99398.64
2019-03-18T04:50:43.188Z,99400.18
2019-03-18T04:51:14.474Z,99391.75
2019-03-18T04:51:45.692Z,99394.21
2019-03-18T04:52:16.897Z,99394.08
2019-03-18T04:52:48.090Z,99398.25
2019-03-18T04:53:19.301Z,99401.93
2019-03-18T04:53:50.514Z,99399.09
2019-03-18T04:54:21.725Z,99394.96
2019-03-18T04:54:52.924Z,99398.16
2019-03-18T04:55:24.181Z,99403.67
2019-03-18T04:55:55.393Z,99397.34
2019-03-18T04:56:26.608Z,99397.92
2019-03-18T04:56:57.853Z,99404.12
2019-03-18T04:57:29.093Z,99401.63
2019-03-18T04:58:00.319Z,99400.53
2019-03-18T04:58:31.524Z,99398.64
2019-03-18T04:59:02.731Z,99401.03
2019-03-18T04:59:33.928Z,99396.96
2019-03-18T05:00:05.153Z,99397.26
2019-03-18T05:00:36.397Z,99401.91
2019-03-18T05:01:07.637Z,99401.65
2019-03-18T05:01:38.844Z,99401.36
2019-03-18T05:02:10.047Z,99401.08
2019-03-18T05:02:41.255Z,99404.39
2019-03-18T05:03:12.472Z,99404.92
2019-03-18T05:03:43.669Z,99410.72
2019-03-18T05:04:14.892Z,99409.00
2019-03-18T05:04:46.177Z,99407.59
2019-03-18T05:05:17.448Z,99406.53
2019-03-18T05:05:48.651Z,99404.94
2019-03-18T05:06:19.869Z,99407.70
2019-03-18T05:06:51.092Z,99410.92
2019-03-18T05:07:22.294Z,99408.23
2019-03-18T05:07:53.492Z,99407.47
2019-03-18T05:08:24.697Z,99407.59
2019-03-18T05:08:55.935Z,99408.30
2019-03-18T05:09:27.146Z,99410.33
2019-03-18T05:09:58.361Z,99411.09
2019-03-18T05:10:29.612Z,99415.23
2019-03-18T05:11:00.824Z,99415.03
2019-03-18T05:11:32.022Z,99413.95
2019-03-18T05:12:03.241Z,99419.34
2019-03-18T05:12:34.449Z,99416.39
2019-03-18T05:13:05.689Z,99418.59
2019-03-18T05:13:36.952Z,99417.30
2019-03-18T05:14:08.121Z,99419.53
2019-03-18T05:14:39.335Z,99417.80
2019-03-18T05:15:10.531Z,99415.22
2019-03-18T05:15:41.848Z,99416.45
2019-03-18T05:16:13.054Z,99414.13
2019-03-18T05:16:44.282Z,99414.37
2019-03-18T05:17:26.117Z,99416.09
2019-03-18T05:17:48.426Z,99419.42
2019-03-18T05:18:19.629Z,99415.41
2019-03-18T05:18:50.838Z,99417.50
2019-03-18T05:19:22.048Z,99415.36
2019-03-18T05:19:53.240Z,99416.08
2019-03-18T05:20:24.464Z,99421.22
2019-03-18T05:20:55.705Z,99420.40
2019-03-18T05:21:27.039Z,99423.41
2019-03-18T05:21:58.239Z,99419.98
2019-03-18T05:22:29.478Z,99422.59
2019-03-18T05:23:00.703Z,99427.63
2019-03-18T05:23:31.907Z,99422.36
2019-03-18T05:24:03.170Z,99427.88
2019-03-18T05:24:34.343Z,99429.53
2019-03-18T05:25:05.560Z,99428.23
2019-03-18T05:25:36.794Z,99427.81
2019-03-18T05:26:07.993Z,99427.75
2019-03-18T05:26:39.203Z,99428.06
2019-03-18T05:27:10.422Z,99428.01
2019-03-18T05:27:41.663Z,99429.77
2019-03-18T05:28:12.873Z,99427.99
2019-03-18T05:28:44.091Z,99428.78
2019-03-18T05:29:15.285Z,99429.13
2019-03-18T05:29:46.499Z,99431.88
2019-03-18T05:30:17.706Z,99436.03
2019-03-18T05:30:48.903Z,99433.25
2019-03-18T05:31:20.103Z,99430.83
2019-03-18T05:31:51.322Z,99431.37
2019-03-18T05:32:22.536Z,99435.44
2019-03-18T05:32:53.797Z,99432.18
2019-03-18T05:33:25.022Z,99434.14
2019-03-18T05:33:56.279Z,99432.76
2019-03-18T05:34:27.480Z,99433.59
2019-03-18T05:34:58.691Z,99433.39
2019-03-18T05:35:29.892Z,99435.34
2019-03-18T05:36:02.052Z,99432.60
2019-03-18T05:36:33.268Z,99437.71
2019-03-18T05:37:04.494Z,99429.34
2019-03-18T05:37:35.729Z,99436.13
2019-03-18T05:38:06.937Z,99435.55
2019-03-18T05:38:38.175Z,99439.12
2019-03-18T05:39:09.418Z,99435.01
2019-03-18T05:39:40.639Z,99436.23
2019-03-18T05:40:11.874Z,99437.42
2019-03-18T05:40:43.075Z,99440.73
2019-03-18T05:41:14.320Z,99439.15
2019-03-18T05:41:45.493Z,99443.65
2019-03-18T05:42:16.684Z,99444.20
2019-03-18T05:42:47.924Z,99444.58
2019-03-18T05:43:19.148Z,99444.03
2019-03-18T05:43:50.361Z,99447.86
2019-03-18T05:44:21.560Z,99446.91
2019-03-18T05:44:52.763Z,99439.82
2019-03-18T05:45:24.025Z,99442.66
2019-03-18T05:45:55.257Z,99439.75
2019-03-18T05:46:26.476Z,99440.93
2019-03-18T05:46:57.678Z,99440.84
2019-03-18T05:47:38.539Z,99441.62
2019-03-18T05:48:01.844Z,99444.08
2019-03-18T05:48:33.047Z,99442.92
2019-03-18T05:49:04.248Z,99448.71
2019-03-18T05:49:35.459Z,99445.95
2019-03-18T05:50:06.670Z,99446.55
2019-03-18T05:50:37.914Z,99448.60
2019-03-18T05:51:09.135Z,99441.79
2019-03-18T05:51:40.387Z,99446.45
2019-03-18T05:52:11.585Z,99451.84
2019-03-18T05:52:42.805Z,99445.86
2019-03-18T05:53:14.008Z,99450.25
2019-03-18T05:53:45.230Z,99452.34
2019-03-18T05:54:16.439Z,99447.52
2019-03-18T05:54:47.637Z,99445.30
2019-03-18T05:55:18.841Z,99450.31
2019-03-18T05:55:50.101Z,99447.70
2019-03-18T05:56:21.298Z,99450.81
2019-03-18T05:56:52.499Z,99446.89
2019-03-18T05:57:25.911Z,99446.39
2019-03-18T05:57:56.644Z,99444.37
2019-03-18T05:58:27.891Z,99450.91
2019-03-18T05:58:59.086Z,99448.30
2019-03-18T05:59:30.305Z,99449.81
2019-03-18T06:00:01.518Z,99451.37
2019-03-18T06:00:32.727Z,99452.55
2019-03-18T06:01:03.955Z,99452.39
2019-03-18T06:01:35.164Z,99441.64
2019-03-18T06:02:06.367Z,99444.93
2019-03-18T06:02:37.560Z,99444.59
2019-03-18T06:03:08.777Z,99443.13
2019-03-18T06:03:40.001Z,99445.20
2019-03-18T06:04:11.247Z,99443.80
2019-03-18T06:04:42.520Z,99446.59
2019-03-18T06:05:13.737Z,99450.28
2019-03-18T06:05:44.941Z,99439.27
2019-03-18T06:06:16.163Z,99440.55
2019-03-18T06:06:47.376Z,99442.97